createdAt,value
2018-03-24T00:01:22.925Z,99.40
2018-03-24T00:03:50.574Z,99.30
2018-03-24T00:06:18.110Z,99.20
2018-03-24T00:08:46.417Z,99.00
2018-03-24T00:11:14.078Z,99.00
2018-03-24T00:13:41.618Z,99.00
2018-03-24T00:16:10.219Z,98.70
2018-03-24T00:18:37.774Z,98.70
2018-03-24T00:21:05.342Z,98.60
2018-03-24T00:23:33.653Z,98.60
2018-03-24T00:26:01.191Z,98.50
2018-03-24T00:28:29.534Z,98.50
2018-03-24T00:30:57.065Z,98.50
2018-03-24T00:33:24.612Z,98.60
2018-03-24T00:35:52.152Z,98.60
2018-03-24T00:38:19.704Z,98.60
2018-03-24T00:40:47.315Z,98.60
2018-03-24T00:43:14.855Z,98.80
2018-03-24T00:45:43.197Z,98.80
2018-03-24T00:48:10.736Z,98.70
2018-03-24T00:50:38.264Z,98.60
2018-03-24T00:53:05.817Z,98.60
2018-03-24T00:55:33.353Z,98.60
2018-03-24T00:58:00.904Z,98.60
2018-03-24T01:00:28.441Z,98.60
2018-03-24T01:02:56.755Z,98.50
2018-03-24T01:05:24.315Z,98.50
2018-03-24T01:07:51.881Z,98.80
2018-03-24T01:10:19.417Z,98.40
2018-03-24T01:12:47.683Z,98.30
2018-03-24T01:15:16.004Z,98.30
2018-03-24T01:17:43.869Z,98.20
2018-03-24T01:20:11.420Z,98.30
2018-03-24T01:22:39.716Z,98.20
2018-03-24T01:25:07.273Z,98.20
2018-03-24T01:27:35.652Z,98.20
2018-03-24T01:30:03.969Z,98.10
2018-03-24T01:32:31.492Z,98.10
2018-03-24T01:34:59.822Z,98.10
2018-03-24T01:37:27.348Z,98.10
2018-03-24T01:39:55.649Z,98.10
2018-03-24T01:42:23.220Z,98.10
2018-03-24T01:44:50.759Z,98.10
2018-03-24T01:47:19.075Z,98.10
2018-03-24T01:49:46.614Z,98.10
2018-03-24T01:52:15.020Z,97.90
2018-03-24T01:54:42.588Z,97.90
2018-03-24T01:57:10.146Z,97.90
2018-03-24T01:59:37.680Z,98.00
2018-03-24T02:02:05.228Z,98.00
2018-03-24T02:04:32.772Z,98.10
2018-03-24T02:07:00.324Z,98.20
2018-03-24T02:09:27.931Z,98.20
2018-03-24T02:11:55.523Z,98.30
2018-03-24T02:14:23.830Z,98.70
2018-03-24T02:16:51.379Z,98.60
2018-03-24T02:19:18.940Z,98.60
2018-03-24T02:21:46.478Z,98.60
2018-03-24T02:24:14.013Z,98.60
2018-03-24T02:26:41.551Z,98.60
2018-03-24T02:29:09.098Z,98.60
2018-03-24T02:31:36.732Z,98.70
2018-03-24T02:34:04.280Z,98.70
2018-03-24T02:36:31.899Z,98.60
2018-03-24T02:39:00.207Z,98.80
2018-03-24T02:41:27.761Z,98.70
2018-03-24T02:43:55.317Z,98.70
2018-03-24T02:46:22.856Z,98.90
2018-03-24T02:48:51.248Z,99.20
2018-03-24T02:51:19.551Z,99.20
2018-03-24T02:53:47.098Z,99.20
2018-03-24T02:56:15.417Z,99.30
2018-03-24T02:58:42.969Z,99.30
2018-03-24T03:01:10.508Z,99.30
2018-03-24T03:03:38.803Z,99.00
2018-03-24T03:06:07.102Z,98.90
2018-03-24T03:08:34.666Z,98.90
2018-03-24T03:11:02.199Z,98.80
2018-03-24T03:13:29.751Z,98.80
2018-03-24T03:15:57.290Z,98.90
2018-03-24T03:18:24.830Z,98.90
2018-03-24T03:20:52.418Z,98.90
2018-03-24T03:23:20.060Z,99.00
2018-03-24T03:25:47.601Z,99.10
2018-03-24T03:28:15.898Z,99.30
2018-03-24T03:30:47.025Z,99.30
2018-03-24T03:33:14.549Z,99.40
2018-03-24T03:35:42.094Z,99.50
2018-03-24T03:38:09.670Z,99.50
2018-03-24T03:40:37.205Z,99.50
2018-03-24T03:43:04.743Z,99.50
2018-03-24T03:45:32.269Z,99.50
2018-03-24T03:47:59.814Z,99.40
2018-03-24T03:50:27.368Z,99.40
2018-03-24T03:52:54.925Z,99.50
2018-03-24T03:55:22.465Z,99.60
2018-03-24T03:57:49.984Z,99.70
2018-03-24T04:00:17.616Z,99.90
2018-03-24T04:02:46.212Z,99.90
2018-03-24T04:05:14.508Z,99.90
2018-03-24T04:07:42.078Z,99.90
2018-03-24T04:10:09.635Z,99.90
2018-03-24T04:12:37.263Z,99.90
2018-03-24T04:15:04.825Z,99.90
2018-03-24T04:17:32.380Z,99.90
2018-03-24T04:19:59.902Z,99.90
2018-03-24T04:22:27.450Z,99.90
2018-03-24T04:24:55.758Z,99.90
2018-03-24T04:27:23.312Z,99.90
2018-03-24T04:29:50.838Z,99.90
2018-03-24T04:32:18.417Z,99.90
2018-03-24T04:34:46.717Z,99.90
2018-03-24T04:37:15.021Z,99.90
2018-03-24T04:39:42.586Z,99.90
2018-03-24T04:42:10.128Z,99.90
2018-03-24T04:44:38.442Z,99.90
2018-03-24T04:47:05.989Z,99.90
2018-03-24T04:49:33.530Z,99.90
2018-03-24T04:52:01.974Z,99.90
2018-03-24T04:54:29.526Z,99.90
2018-03-24T04:56:57.091Z,99.90
2018-03-24T04:59:24.647Z,99.90
2018-03-24T05:01:52.249Z,99.90
2018-03-24T05:04:19.804Z,99.90
2018-03-24T05:06:47.354Z,99.90
2018-03-24T05:09:14.907Z,99.90
2018-03-24T05:11:42.440Z,99.90
2018-03-24T05:14:10.757Z,99.90
2018-03-24T05:16:38.340Z,99.90
2018-03-24T05:19:05.886Z,99.90
2018-03-24T05:21:33.442Z,99.90
2018-03-24T05:24:01.002Z,99.90
2018-03-24T05:26:29.296Z,99.90
2018-03-24T05:28:56.849Z,99.90
2018-03-24T05:31:24.388Z,99.90
2018-03-24T05:33:51.931Z,99.90
2018-03-24T05:36:19.480Z,99.90
2018-03-24T05:38:47.028Z,99.90
2018-03-24T05:41:14.578Z,99.90
2018-03-24T05:43:42.090Z,99.90
2018-03-24T05:46:09.638Z,99.90
2018-03-24T05:48:37.493Z,99.90
2018-03-24T05:51:04.948Z,99.90
2018-03-24T05:53:33.391Z,99.90
2018-03-24T05:56:00.928Z,99.90
2018-03-24T05:58:28.470Z,99.90
2018-03-24T06:00:56.012Z,99.90
2018-03-24T06:03:24.363Z,99.90
2018-03-24T06:05:52.180Z,99.90
2018-03-24T06:08:19.722Z,99.90
2018-03-24T06:10:48.033Z,99.90
2018-03-24T06:13:15.570Z,99.90
2018-03-24T06:15:43.876Z,99.90
2018-03-24T06:18:11.443Z,99.90
2018-03-24T06:20:38.982Z,99.80
2018-03-24T06:23:07.281Z,99.80
2018-03-24T06:25:34.821Z,99.80
2018-03-24T06:28:02.366Z,99.70
2018-03-24T06:30:45.709Z,99.60
2018-03-24T06:33:13.252Z,99.60
2018-03-24T06:35:40.929Z,99.60
2018-03-24T06:38:08.486Z,99.50
2018-03-24T06:40:36.028Z,99.50
2018-03-24T06:43:03.617Z,99.50
2018-03-24T06:45:31.150Z,99.50
2018-03-24T06:47:58.716Z,99.50
2018-03-24T06:50:26.245Z,99.20
2018-03-24T06:52:54.554Z,99.20
2018-03-24T06:55:22.171Z,99.20
2018-03-24T06:57:49.844Z,99.00
2018-03-24T07:00:17.403Z,98.90
2018-03-24T07:02:44.934Z,98.80
2018-03-24T07:05:12.505Z,98.70
2018-03-24T07:07:40.374Z,99.10
2018-03-24T07:10:07.881Z,98.70
2018-03-24T07:12:35.447Z,98.40
2018-03-24T07:15:03.015Z,98.40
2018-03-24T07:17:30.664Z,98.40
2018-03-24T07:19:58.235Z,98.30
2018-03-24T07:22:26.542Z,97.90
2018-03-24T07:24:54.940Z,97.80
2018-03-24T07:27:23.260Z,97.70
2018-03-24T07:29:50.790Z,97.70
2018-03-24T07:32:18.355Z,97.20
2018-03-24T07:34:46.675Z,97.10
2018-03-24T07:37:14.327Z,97.10
2018-03-24T07:39:41.880Z,96.90
2018-03-24T07:42:09.411Z,96.80
2018-03-24T07:44:37.019Z,96.70
2018-03-24T07:47:04.543Z,96.40
2018-03-24T07:49:32.089Z,96.30
2018-03-24T07:51:59.644Z,96.40
2018-03-24T07:54:27.182Z,96.20
2018-03-24T07:56:54.757Z,96.20
2018-03-24T07:59:22.286Z,96.10
2018-03-24T08:01:50.592Z,96.10
2018-03-24T08:04:18.166Z,96.10
2018-03-24T08:06:45.710Z,96.30
2018-03-24T08:09:14.023Z,96.50
2018-03-24T08:11:41.560Z,96.50
2018-03-24T08:14:09.853Z,96.80
2018-03-24T08:16:37.403Z,96.80
2018-03-24T08:19:05.692Z,97.20
2018-03-24T08:21:33.531Z,97.10
2018-03-24T08:24:01.067Z,97.20
2018-03-24T08:26:28.590Z,97.20
2018-03-24T08:28:56.153Z,97.20
2018-03-24T08:31:24.605Z,97.00
2018-03-24T08:33:52.158Z,97.00
2018-03-24T08:36:19.729Z,97.10
2018-03-24T08:38:47.281Z,96.70
2018-03-24T08:41:14.867Z,96.70
2018-03-24T08:43:42.417Z,96.60
2018-03-24T08:46:09.973Z,96.50
2018-03-24T08:48:37.518Z,95.80
2018-03-24T08:51:05.053Z,95.80
2018-03-24T08:53:33.380Z,95.90
2018-03-24T08:56:00.932Z,95.90
2018-03-24T08:58:28.498Z,95.60
2018-03-24T09:00:56.075Z,94.80
2018-03-24T09:03:24.598Z,94.70
2018-03-24T09:05:52.125Z,94.70
2018-03-24T09:08:19.695Z,94.50
2018-03-24T09:10:47.249Z,94.80
2018-03-24T09:13:14.808Z,94.80
2018-03-24T09:15:42.358Z,94.70
2018-03-24T09:18:10.665Z,94.40
2018-03-24T09:20:38.252Z,94.40
2018-03-24T09:23:06.081Z,93.60
2018-03-24T09:25:33.690Z,93.70
2018-03-24T09:28:01.333Z,93.20
2018-03-24T09:30:28.794Z,92.50
2018-03-24T09:32:57.391Z,92.70
2018-03-24T09:35:27.918Z,92.50
2018-03-24T09:37:55.448Z,92.50
2018-03-24T09:40:23.781Z,91.60
2018-03-24T09:42:51.430Z,91.60
2018-03-24T09:45:18.979Z,91.30
2018-03-24T09:47:46.565Z,90.90
2018-03-24T09:50:14.188Z,90.90
2018-03-24T09:52:41.808Z,90.70
2018-03-24T09:55:10.079Z,90.60
2018-03-24T09:57:37.623Z,90.60
2018-03-24T10:00:05.968Z,91.20
2018-03-24T10:02:33.506Z,91.00
2018-03-24T10:05:01.056Z,90.30
2018-03-24T10:07:28.587Z,90.10
2018-03-24T10:09:57.726Z,90.30
2018-03-24T10:12:25.294Z,90.10
2018-03-24T10:14:52.829Z,88.30
2018-03-24T10:17:21.145Z,88.20
2018-03-24T10:19:48.687Z,88.20
2018-03-24T10:22:43.649Z,85.90
2018-03-24T10:25:11.237Z,85.90
2018-03-24T10:27:39.544Z,84.10
2018-03-24T10:30:07.104Z,84.10
2018-03-24T10:32:34.876Z,84.10
2018-03-24T10:35:06.877Z,83.50
2018-03-24T10:37:40.042Z,80.40
2018-03-24T10:40:07.624Z,78.80
2018-03-24T10:42:35.155Z,78.30
2018-03-24T10:45:02.703Z,77.10
2018-03-24T10:47:31.014Z,75.90
2018-03-24T10:49:58.611Z,75.10
2018-03-24T10:52:26.175Z,74.60
2018-03-24T10:54:53.719Z,68.40
2018-03-24T10:57:21.263Z,69.80
2018-03-24T10:59:48.804Z,69.50
2018-03-24T11:02:16.344Z,67.60
2018-03-24T11:04:43.873Z,63.60
2018-03-24T11:07:11.422Z,64.30
2018-03-24T11:09:39.756Z,65.60
2018-03-24T11:12:07.338Z,65.50
2018-03-24T11:14:34.896Z,62.20
2018-03-24T11:17:02.445Z,63.20
2018-03-24T11:19:30.321Z,61.60
2018-03-24T11:21:57.874Z,59.70
2018-03-24T11:24:25.419Z,57.70
2018-03-24T11:26:52.928Z,58.80
2018-03-24T11:29:20.500Z,58.80
2018-03-24T11:31:48.062Z,60.20
2018-03-24T11:34:15.975Z,60.80
2018-03-24T11:36:44.299Z,58.90
2018-03-24T11:39:11.840Z,58.30
2018-03-24T11:41:39.390Z,58.70
2018-03-24T11:44:06.940Z,58.60
2018-03-24T11:46:35.282Z,57.40
2018-03-24T11:49:02.837Z,57.20
2018-03-24T11:51:30.374Z,57.80
2018-03-24T11:53:57.918Z,58.10
2018-03-24T11:56:26.293Z,57.00
2018-03-24T11:58:53.871Z,57.00
2018-03-24T12:01:22.190Z,56.30
2018-03-24T12:03:49.753Z,56.20
2018-03-24T12:06:17.282Z,56.50
2018-03-24T12:08:45.653Z,56.90
2018-03-24T12:11:13.165Z,56.90
2018-03-24T12:13:40.727Z,57.50
2018-03-24T12:16:08.280Z,57.10
2018-03-24T12:18:36.020Z,56.80
2018-03-24T12:21:03.561Z,56.80
2018-03-24T12:23:31.913Z,57.70
2018-03-24T12:25:59.471Z,57.70
2018-03-24T12:28:27.015Z,56.40
2018-03-24T12:30:55.319Z,55.80
2018-03-24T12:33:22.881Z,55.70
2018-03-24T12:35:50.759Z,55.70
2018-03-24T12:38:18.292Z,54.70
2018-03-24T12:40:46.617Z,54.10
2018-03-24T12:43:14.281Z,54.10
2018-03-24T12:45:41.809Z,54.70
2018-03-24T12:48:10.642Z,55.10
2018-03-24T12:50:38.232Z,55.10
2018-03-24T12:53:05.794Z,54.40
2018-03-24T12:55:33.330Z,55.20
2018-03-24T12:58:00.881Z,54.60
2018-03-24T13:00:29.244Z,54.20
2018-03-24T13:02:56.720Z,53.40
2018-03-24T13:05:25.041Z,53.50
2018-03-24T13:07:52.566Z,53.50
2018-03-24T13:10:20.878Z,53.60
2018-03-24T13:12:48.733Z,53.60
2018-03-24T13:15:17.036Z,53.40
2018-03-24T13:17:44.578Z,53.40
2018-03-24T13:20:12.125Z,53.10
2018-03-24T13:22:39.671Z,53.60
2018-03-24T13:25:07.280Z,53.00
2018-03-24T13:27:35.581Z,52.20
2018-03-24T13:30:03.133Z,52.20
2018-03-24T13:32:30.674Z,52.20
2018-03-24T13:34:59.002Z,50.00
2018-03-24T13:37:30.576Z,50.00
2018-03-24T13:39:58.118Z,50.80
2018-03-24T13:42:26.490Z,50.50
2018-03-24T13:44:54.017Z,50.50
2018-03-24T13:47:21.556Z,50.10
2018-03-24T13:49:49.141Z,50.80
2018-03-24T13:52:16.676Z,48.70
2018-03-24T13:54:44.226Z,48.50
2018-03-24T13:57:11.899Z,48.60
2018-03-24T13:59:39.433Z,48.70
2018-03-24T14:02:07.770Z,50.00
2018-03-24T14:04:35.336Z,50.00
2018-03-24T14:07:02.899Z,49.50
2018-03-24T14:09:30.442Z,51.00
2018-03-24T14:11:58.001Z,51.20
2018-03-24T14:14:25.587Z,51.30
2018-03-24T14:16:53.127Z,51.10
2018-03-24T14:19:20.673Z,50.10
2018-03-24T14:21:48.983Z,49.30
2018-03-24T14:24:16.520Z,49.30
2018-03-24T14:26:45.260Z,49.20
2018-03-24T14:29:12.804Z,49.10
2018-03-24T14:31:40.354Z,49.00
2018-03-24T14:34:08.716Z,50.20
2018-03-24T14:36:36.257Z,50.20
2018-03-24T14:39:03.790Z,49.80
2018-03-24T14:41:31.455Z,50.10
2018-03-24T14:43:59.297Z,50.10
2018-03-24T14:46:27.609Z,50.50
2018-03-24T14:48:55.275Z,50.50
2018-03-24T14:51:22.835Z,50.10
2018-03-24T14:53:50.384Z,50.40
2018-03-24T14:56:18.729Z,50.40
2018-03-24T14:58:47.036Z,50.70
2018-03-24T15:01:14.578Z,50.70
2018-03-24T15:03:42.166Z,51.00
2018-03-24T15:06:09.709Z,50.80
2018-03-24T15:08:37.259Z,50.20
2018-03-24T15:11:04.788Z,50.60
2018-03-24T15:13:32.347Z,50.40
2018-03-24T15:16:00.747Z,51.90
2018-03-24T15:18:28.299Z,51.90
2018-03-24T15:20:56.752Z,51.00
2018-03-24T15:23:25.107Z,51.00
2018-03-24T15:25:52.658Z,52.00
2018-03-24T15:28:20.243Z,52.90
2018-03-24T15:31:11.569Z,53.40
2018-03-24T15:33:51.048Z,53.60
2018-03-24T15:36:30.432Z,53.40
2018-03-24T15:38:58.009Z,53.70
2018-03-24T15:41:25.571Z,53.50
2018-03-24T15:43:53.213Z,54.00
2018-03-24T15:46:20.775Z,53.20
2018-03-24T15:48:48.360Z,53.50
2018-03-24T15:51:16.704Z,53.40
2018-03-24T15:53:44.252Z,53.40
2018-03-24T15:56:12.561Z,54.10
2018-03-24T15:58:40.275Z,54.10
2018-03-24T16:01:07.816Z,54.20
2018-03-24T16:03:35.397Z,54.60
2018-03-24T16:06:03.055Z,54.60
2018-03-24T16:08:30.618Z,54.60
2018-03-24T16:10:58.180Z,55.30
2018-03-24T16:13:25.729Z,54.80
2018-03-24T16:15:53.628Z,55.30
2018-03-24T16:18:21.187Z,55.40
2018-03-24T16:20:48.738Z,55.20
2018-03-24T16:23:16.276Z,55.30
2018-03-24T16:25:44.579Z,55.90
2018-03-24T16:28:12.170Z,56.00
2018-03-24T16:30:39.797Z,56.20
2018-03-24T16:33:08.241Z,56.10
2018-03-24T16:35:35.815Z,56.20
2018-03-24T16:38:03.362Z,56.20
2018-03-24T16:40:30.944Z,56.20
2018-03-24T16:42:58.497Z,55.70
2018-03-24T16:45:26.068Z,56.50
2018-03-24T16:47:53.708Z,56.70
2018-03-24T16:50:21.245Z,57.10
2018-03-24T16:52:48.816Z,57.80
2018-03-24T16:55:16.425Z,57.30
2018-03-24T16:57:43.943Z,57.90
2018-03-24T17:00:11.500Z,57.70
2018-03-24T17:02:39.865Z,58.40
2018-03-24T17:05:07.411Z,58.30
2018-03-24T17:07:34.947Z,58.30
2018-03-24T17:10:02.512Z,58.40
2018-03-24T17:12:30.133Z,59.00
2018-03-24T17:14:57.681Z,59.20
2018-03-24T17:17:25.264Z,59.30
2018-03-24T17:19:52.829Z,59.60
2018-03-24T17:22:20.367Z,59.80
2018-03-24T17:24:47.903Z,60.20
2018-03-24T17:27:15.463Z,60.70
2018-03-24T17:29:43.082Z,61.00
2018-03-24T17:32:10.654Z,61.40
2018-03-24T17:34:38.208Z,61.80
2018-03-24T17:37:05.768Z,61.70
2018-03-24T17:39:33.316Z,61.90
2018-03-24T17:42:00.978Z,62.20
2018-03-24T17:44:28.655Z,62.30
2018-03-24T17:46:56.904Z,63.00
2018-03-24T17:49:24.436Z,63.00
2018-03-24T17:51:51.988Z,63.10
2018-03-24T17:54:19.568Z,63.40
2018-03-24T17:56:47.888Z,63.80
2018-03-24T17:59:15.425Z,63.20
2018-03-24T18:01:43.718Z,64.50
2018-03-24T18:04:11.332Z,64.40
2018-03-24T18:06:39.013Z,64.50
2018-03-24T18:09:06.554Z,64.50
2018-03-24T18:11:34.104Z,65.10
2018-03-24T18:14:01.786Z,65.60
2018-03-24T18:16:29.332Z,65.50
2018-03-24T18:18:56.890Z,66.10
2018-03-24T18:21:24.550Z,66.20
2018-03-24T18:23:52.093Z,66.40
2018-03-24T18:26:19.702Z,66.70
2018-03-24T18:28:47.258Z,67.00
2018-03-24T18:31:14.825Z,67.40
2018-03-24T18:33:42.392Z,67.50
2018-03-24T18:36:10.011Z,67.70
2018-03-24T18:38:37.567Z,67.40
2018-03-24T18:41:05.096Z,67.70
2018-03-24T18:43:32.779Z,67.90
2018-03-24T18:46:00.343Z,68.10
2018-03-24T18:48:27.894Z,68.50
2018-03-24T18:50:55.446Z,69.40
2018-03-24T18:53:22.980Z,70.00
2018-03-24T18:55:51.318Z,71.80
2018-03-24T18:58:18.889Z,70.80
2018-03-24T19:00:46.471Z,70.80
2018-03-24T19:03:14.024Z,70.90
2018-03-24T19:05:41.598Z,71.60
2018-03-24T19:08:09.188Z,72.10
2018-03-24T19:10:36.715Z,72.20
2018-03-24T19:13:04.263Z,72.40
2018-03-24T19:15:31.807Z,73.10
2018-03-24T19:18:00.174Z,73.90
2018-03-24T19:20:27.786Z,73.70
2018-03-24T19:22:55.323Z,74.60
2018-03-24T19:25:23.640Z,75.60
2018-03-24T19:27:51.213Z,75.60
2018-03-24T19:30:18.823Z,75.60
2018-03-24T19:32:46.352Z,76.20
2018-03-24T19:35:13.932Z,76.50
2018-03-24T19:37:41.491Z,76.90
2018-03-24T19:40:09.031Z,77.30
2018-03-24T19:42:36.571Z,77.50
2018-03-24T19:45:04.926Z,78.30
2018-03-24T19:47:32.757Z,78.30
2018-03-24T19:50:00.302Z,78.60
2018-03-24T19:52:27.931Z,79.80
2018-03-24T19:54:55.441Z,79.10
2018-03-24T19:57:23.038Z,79.70
2018-03-24T19:59:50.593Z,80.40
2018-03-24T20:02:18.220Z,79.80
2018-03-24T20:04:46.534Z,79.10
2018-03-24T20:07:15.566Z,79.10
2018-03-24T20:09:43.137Z,78.90
2018-03-24T20:12:10.727Z,78.70
2018-03-24T20:14:39.317Z,78.50
2018-03-24T20:17:06.888Z,78.40
2018-03-24T20:19:36.119Z,78.60
2018-03-24T20:22:03.693Z,78.50
2018-03-24T20:24:31.267Z,78.60
2018-03-24T20:26:58.844Z,78.60
2018-03-24T20:29:27.169Z,78.60
2018-03-24T20:31:55.479Z,78.70
2018-03-24T20:34:23.032Z,78.70
2018-03-24T20:36:50.669Z,78.80
2018-03-24T20:39:18.232Z,78.90
2018-03-24T20:41:45.794Z,79.10
2018-03-24T20:44:13.403Z,79.10
2018-03-24T20:46:41.375Z,79.70
2018-03-24T20:49:08.928Z,80.40
2018-03-24T20:51:37.242Z,81.20
2018-03-24T20:54:04.804Z,81.20
2018-03-24T20:56:32.355Z,81.30
2018-03-24T20:58:59.916Z,81.50
2018-03-24T21:01:27.471Z,81.90
2018-03-24T21:03:55.791Z,81.80
2018-03-24T21:06:23.362Z,81.80
2018-03-24T21:08:50.927Z,81.90
2018-03-24T21:11:18.512Z,81.90
2018-03-24T21:13:46.066Z,81.80
2018-03-24T21:16:13.601Z,81.80
2018-03-24T21:18:41.140Z,82.50
2018-03-24T21:21:09.507Z,81.70
2018-03-24T21:23:37.109Z,81.80
2018-03-24T21:26:04.670Z,82.20
2018-03-24T21:28:32.212Z,82.50
2018-03-24T21:30:59.756Z,82.50
2018-03-24T21:33:27.300Z,82.70
2018-03-24T21:35:54.870Z,82.70
2018-03-24T21:38:23.177Z,83.50
2018-03-24T21:40:50.780Z,83.50
2018-03-24T21:43:19.136Z,84.40
2018-03-24T21:45:46.692Z,84.40
2018-03-24T21:48:14.621Z,84.70
2018-03-24T21:50:42.185Z,84.60
2018-03-24T21:53:09.711Z,84.80
2018-03-24T21:55:37.249Z,84.90
2018-03-24T21:58:04.914Z,85.00
2018-03-24T22:00:32.679Z,85.00
2018-03-24T22:03:00.992Z,85.20
2018-03-24T22:05:28.567Z,85.10
2018-03-24T22:07:56.892Z,85.80
2018-03-24T22:10:24.435Z,85.70
2018-03-24T22:12:52.013Z,86.00
2018-03-24T22:15:19.565Z,86.90
2018-03-24T22:17:47.869Z,86.20
2018-03-24T22:20:15.416Z,86.20
2018-03-24T22:22:42.976Z,86.10
2018-03-24T22:25:11.308Z,86.40
2018-03-24T22:27:38.851Z,86.30
2018-03-24T22:30:06.548Z,86.60
2018-03-24T22:32:34.095Z,86.90
2018-03-24T22:35:01.741Z,87.10
2018-03-24T22:37:29.309Z,87.10
2018-03-24T22:39:56.867Z,87.30
2018-03-24T22:42:24.412Z,87.40
2018-03-24T22:44:52.728Z,87.20
2018-03-24T22:47:20.314Z,87.20
2018-03-24T22:49:48.258Z,87.40
2018-03-24T22:52:15.970Z,87.80
2018-03-24T22:54:43.521Z,88.00
2018-03-24T22:57:11.064Z,88.00
2018-03-24T22:59:38.618Z,88.10
2018-03-24T23:02:06.371Z,88.40
2018-03-24T23:04:34.682Z,88.90
2018-03-24T23:07:02.320Z,88.70
2018-03-24T23:09:30.842Z,89.10
2018-03-24T23:11:58.398Z,89.10
2018-03-24T23:14:25.929Z,89.20
2018-03-24T23:16:53.473Z,89.20
2018-03-24T23:19:21.040Z,89.60
2018-03-24T23:21:48.610Z,89.60
2018-03-24T23:24:16.217Z,89.80
2018-03-24T23:26:44.532Z,89.80
2018-03-24T23:29:12.092Z,89.70
2018-03-24T23:31:40.037Z,89.80
2018-03-24T23:34:08.346Z,89.90
2018-03-24T23:36:35.897Z,89.90
2018-03-24T23:39:03.473Z,90.00
2018-03-24T23:41:31.043Z,90.20
2018-03-24T23:43:58.621Z,90.20
2018-03-24T23:46:26.161Z,90.10
2018-03-24T23:48:53.760Z,90.20
2018-03-24T23:51:21.308Z,90.30
2018-03-24T23:53:48.851Z,90.40
2018-03-24T23:56:16.430Z,90.60
2018-03-24T23:58:43.972Z,90.70
